sensor_id;sensor_type;location;lat;lon;timestamp;P1;durP1;ratioP1;P2;durP2;ratioP2
12290;SDS011;6208;48.956;9.076;2023-10-31T00:00:02;1.10;;;0.80;;
12290;SDS011;6208;48.956;9.076;2023-10-31T00:02:47;0.70;;;0.70;;
12290;SDS011;6208;48.956;9.076;2023-10-31T00:05:31;0.75;;;0.75;;
12290;SDS011;6208;48.956;9.076;2023-10-31T00:08:15;0.80;;;0.80;;
12290;SDS011;6208;48.956;9.076;2023-10-31T00:10:59;0.75;;;0.70;;
12290;SDS011;6208;48.956;9.076;2023-10-31T00:13:43;0.70;;;0.60;;
12290;SDS011;6208;48.956;9.076;2023-10-31T00:16:28;0.60;;;0.60;;
12290;SDS011;6208;48.956;9.076;2023-10-31T00:19:12;1.83;;;0.50;;
12290;SDS011;6208;48.956;9.076;2023-10-31T00:21:56;0.40;;;0.40;;
12290;SDS011;6208;48.956;9.076;2023-10-31T00:24:40;3.53;;;0.50;;
12290;SDS011;6208;48.956;9.076;2023-10-31T00:27:24;0.70;;;0.47;;
12290;SDS011;6208;48.956;9.076;2023-10-31T00:30:08;0.30;;;0.30;;
12290;SDS011;6208;48.956;9.076;2023-10-31T00:32:53;1.25;;;0.40;;
12290;SDS011;6208;48.956;9.076;2023-10-31T00:35:37;0.47;;;0.47;;
12290;SDS011;6208;48.956;9.076;2023-10-31T00:38:21;0.68;;;0.68;;
12290;SDS011;6208;48.956;9.076;2023-10-31T00:41:05;0.50;;;0.50;;
12290;SDS011;6208;48.956;9.076;2023-10-31T00:43:50;0.47;;;0.43;;
12290;SDS011;6208;48.956;9.076;2023-10-31T00:46:35;1.30;;;0.60;;
12290;SDS011;6208;48.956;9.076;2023-10-31T00:49:18;0.40;;;0.40;;
12290;SDS011;6208;48.956;9.076;2023-10-31T00:52:02;1.65;;;0.50;;
12290;SDS011;6208;48.956;9.076;2023-10-31T00:54:47;0.55;;;0.40;;
12290;SDS011;6208;48.956;9.076;2023-10-31T00:57:32;0.40;;;0.40;;
12290;SDS011;6208;48.956;9.076;2023-10-31T01:00:16;0.75;;;0.68;;
12290;SDS011;6208;48.956;9.076;2023-10-31T01:03:00;0.73;;;0.52;;
12290;SDS011;6208;48.956;9.076;2023-10-31T01:05:44;0.77;;;0.35;;
12290;SDS011;6208;48.956;9.076;2023-10-31T01:08:28;2.15;;;0.80;;
12290;SDS011;6208;48.956;9.076;2023-10-31T01:11:13;1.45;;;0.70;;
12290;SDS011;6208;48.956;9.076;2023-10-31T01:13:57;0.50;;;0.50;;
12290;SDS011;6208;48.956;9.076;2023-10-31T01:16:42;0.50;;;0.50;;
12290;SDS011;6208;48.956;9.076;2023-10-31T01:19:26;1.13;;;0.60;;
12290;SDS011;6208;48.956;9.076;2023-10-31T01:22:10;0.93;;;0.50;;
12290;SDS011;6208;48.956;9.076;2023-10-31T01:24:54;1.65;;;0.60;;
12290;SDS011;6208;48.956;9.076;2023-10-31T01:27:38;2.35;;;0.60;;
12290;SDS011;6208;48.956;9.076;2023-10-31T01:30:22;0.57;;;0.52;;
12290;SDS011;6208;48.956;9.076;2023-10-31T01:33:06;0.60;;;0.60;;
12290;SDS011;6208;48.956;9.076;2023-10-31T01:35:50;0.60;;;0.60;;
12290;SDS011;6208;48.956;9.076;2023-10-31T01:38:35;0.93;;;0.68;;
12290;SDS011;6208;48.956;9.076;2023-10-31T01:41:20;0.95;;;0.60;;
12290;SDS011;6208;48.956;9.076;2023-10-31T01:44:04;2.97;;;0.75;;
12290;SDS011;6208;48.956;9.076;2023-10-31T01:46:48;0.95;;;0.47;;
12290;SDS011;6208;48.956;9.076;2023-10-31T01:49:32;0.57;;;0.47;;
12290;SDS011;6208;48.956;9.076;2023-10-31T01:52:16;0.45;;;0.40;;
12290;SDS011;6208;48.956;9.076;2023-10-31T01:55:01;0.45;;;0.45;;
12290;SDS011;6208;48.956;9.076;2023-10-31T01:57:46;3.53;;;0.77;;
12290;SDS011;6208;48.956;9.076;2023-10-31T02:00:32;0.50;;;0.50;;
12290;SDS011;6208;48.956;9.076;2023-10-31T02:03:16;1.15;;;0.80;;
12290;SDS011;6208;48.956;9.076;2023-10-31T02:06:01;2.03;;;0.80;;
12290;SDS011;6208;48.956;9.076;2023-10-31T02:08:46;2.92;;;0.60;;
12290;SDS011;6208;48.956;9.076;2023-10-31T02:11:31;1.42;;;0.65;;
12290;SDS011;6208;48.956;9.076;2023-10-31T02:14:15;0.50;;;0.50;;
12290;SDS011;6208;48.956;9.076;2023-10-31T02:16:59;1.95;;;0.75;;
12290;SDS011;6208;48.956;9.076;2023-10-31T02:19:44;1.50;;;0.70;;
12290;SDS011;6208;48.956;9.076;2023-10-31T02:22:27;1.30;;;0.52;;
12290;SDS011;6208;48.956;9.076;2023-10-31T02:25:15;2.53;;;0.60;;
12290;SDS011;6208;48.956;9.076;2023-10-31T02:28:00;0.70;;;0.70;;
12290;SDS011;6208;48.956;9.076;2023-10-31T02:30:44;2.72;;;0.93;;
12290;SDS011;6208;48.956;9.076;2023-10-31T02:33:29;2.28;;;0.88;;
12290;SDS011;6208;48.956;9.076;2023-10-31T02:36:13;1.85;;;0.63;;
12290;SDS011;6208;48.956;9.076;2023-10-31T02:38:57;0.55;;;0.55;;
12290;SDS011;6208;48.956;9.076;2023-10-31T02:41:41;2.20;;;0.50;;
12290;SDS011;6208;48.956;9.076;2023-10-31T02:44:25;1.00;;;0.57;;
12290;SDS011;6208;48.956;9.076;2023-10-31T02:47:09;0.80;;;0.60;;
12290;SDS011;6208;48.956;9.076;2023-10-31T02:49:53;0.47;;;0.47;;
12290;SDS011;6208;48.956;9.076;2023-10-31T02:52:37;0.95;;;0.60;;
12290;SDS011;6208;48.956;9.076;2023-10-31T02:55:22;1.10;;;1.00;;
12290;SDS011;6208;48.956;9.076;2023-10-31T02:58:06;0.63;;;0.57;;
12290;SDS011;6208;48.956;9.076;2023-10-31T03:00:50;0.70;;;0.60;;
12290;SDS011;6208;48.956;9.076;2023-10-31T03:03:35;1.20;;;0.60;;
12290;SDS011;6208;48.956;9.076;2023-10-31T03:06:19;0.75;;;0.60;;
12290;SDS011;6208;48.956;9.076;2023-10-31T03:09:03;0.77;;;0.70;;
12290;SDS011;6208;48.956;9.076;2023-10-31T03:11:47;1.40;;;0.80;;
12290;SDS011;6208;48.956;9.076;2023-10-31T03:14:31;0.50;;;0.50;;
12290;SDS011;6208;48.956;9.076;2023-10-31T03:17:15;1.20;;;0.70;;
12290;SDS011;6208;48.956;9.076;2023-10-31T03:20:00;0.65;;;0.65;;
12290;SDS011;6208;48.956;9.076;2023-10-31T03:22:44;0.50;;;0.50;;
12290;SDS011;6208;48.956;9.076;2023-10-31T03:25:28;0.50;;;0.50;;
12290;SDS011;6208;48.956;9.076;2023-10-31T03:28:20;0.73;;;0.73;;
12290;SDS011;6208;48.956;9.076;2023-10-31T03:31:07;0.80;;;0.80;;
12290;SDS011;6208;48.956;9.076;2023-10-31T03:33:53;0.73;;;0.60;;
12290;SDS011;6208;48.956;9.076;2023-10-31T03:36:37;1.23;;;0.80;;
12290;SDS011;6208;48.956;9.076;2023-10-31T03:39:21;0.50;;;0.50;;
12290;SDS011;6208;48.956;9.076;2023-10-31T03:42:06;0.50;;;0.50;;
12290;SDS011;6208;48.956;9.076;2023-10-31T03:44:50;0.50;;;0.50;;
12290;SDS011;6208;48.956;9.076;2023-10-31T03:47:34;0.85;;;0.45;;
12290;SDS011;6208;48.956;9.076;2023-10-31T03:50:18;0.32;;;0.32;;
12290;SDS011;6208;48.956;9.076;2023-10-31T03:53:02;0.32;;;0.30;;
12290;SDS011;6208;48.956;9.076;2023-10-31T03:55:47;0.88;;;0.60;;
12290;SDS011;6208;48.956;9.076;2023-10-31T03:58:31;0.50;;;0.50;;
12290;SDS011;6208;48.956;9.076;2023-10-31T04:01:15;1.13;;;0.50;;
12290;SDS011;6208;48.956;9.076;2023-10-31T04:03:59;0.63;;;0.60;;
12290;SDS011;6208;48.956;9.076;2023-10-31T04:06:43;1.15;;;0.60;;
12290;SDS011;6208;48.956;9.076;2023-10-31T04:09:28;0.43;;;0.43;;
12290;SDS011;6208;48.956;9.076;2023-10-31T04:12:12;1.02;;;0.65;;
12290;SDS011;6208;48.956;9.076;2023-10-31T04:14:56;0.68;;;0.68;;
12290;SDS011;6208;48.956;9.076;2023-10-31T04:17:41;0.47;;;0.47;;
12290;SDS011;6208;48.956;9.076;2023-10-31T04:20:25;0.82;;;0.55;;
12290;SDS011;6208;48.956;9.076;2023-10-31T04:23:09;0.70;;;0.70;;
12290;SDS011;6208;48.956;9.076;2023-10-31T04:25:55;0.70;;;0.70;;
12290;SDS011;6208;48.956;9.076;2023-10-31T04:28:39;0.50;;;0.50;;
12290;SDS011;6208;48.956;9.076;2023-10-31T04:31:23;0.77;;;0.50;;
12290;SDS011;6208;48.956;9.076;2023-10-31T04:34:07;0.70;;;0.70;;
12290;SDS011;6208;48.956;9.076;2023-10-31T04:36:51;0.68;;;0.50;;
12290;SDS011;6208;48.956;9.076;2023-10-31T04:39:35;0.47;;;0.47;;
12290;SDS011;6208;48.956;9.076;2023-10-31T04:42:20;1.10;;;1.00;;
12290;SDS011;6208;48.956;9.076;2023-10-31T04:45:04;1.00;;;0.60;;
12290;SDS011;6208;48.956;9.076;2023-10-31T04:47:49;2.78;;;0.93;;
12290;SDS011;6208;48.956;9.076;2023-10-31T04:50:33;0.65;;;0.60;;
12290;SDS011;6208;48.956;9.076;2023-10-31T04:53:17;0.50;;;0.50;;
12290;SDS011;6208;48.956;9.076;2023-10-31T04:56:01;0.73;;;0.52;;
12290;SDS011;6208;48.956;9.076;2023-10-31T04:58:46;2.67;;;0.60;;
12290;SDS011;6208;48.956;9.076;2023-10-31T05:01:31;0.70;;;0.60;;
12290;SDS011;6208;48.956;9.076;2023-10-31T05:04:15;0.35;;;0.35;;
12290;SDS011;6208;48.956;9.076;2023-10-31T05:07:00;0.50;;;0.50;;
12290;SDS011;6208;48.956;9.076;2023-10-31T05:09:45;2.60;;;0.60;;
12290;SDS011;6208;48.956;9.076;2023-10-31T05:12:29;2.65;;;0.50;;
12290;SDS011;6208;48.956;9.076;2023-10-31T05:15:13;1.50;;;1.40;;
12290;SDS011;6208;48.956;9.076;2023-10-31T05:17:58;0.47;;;0.47;;
12290;SDS011;6208;48.956;9.076;2023-10-31T05:20:42;0.60;;;0.60;;
12290;SDS011;6208;48.956;9.076;2023-10-31T05:23:26;0.68;;;0.45;;
12290;SDS011;6208;48.956;9.076;2023-10-31T05:26:11;0.47;;;0.47;;
12290;SDS011;6208;48.956;9.076;2023-10-31T05:28:55;0.50;;;0.50;;
12290;SDS011;6208;48.956;9.076;2023-10-31T05:31:41;0.60;;;0.55;;
12290;SDS011;6208;48.956;9.076;2023-10-31T05:34:26;0.55;;;0.40;;
12290;SDS011;6208;48.956;9.076;2023-10-31T05:37:10;2.45;;;0.40;;
12290;SDS011;6208;48.956;9.076;2023-10-31T05:39:54;0.63;;;0.60;;
12290;SDS011;6208;48.956;9.076;2023-10-31T05:42:39;1.38;;;0.47;;
12290;SDS011;6208;48.956;9.076;2023-10-31T05:45:24;0.80;;;0.77;;
12290;SDS011;6208;48.956;9.076;2023-10-31T05:48:08;0.50;;;0.50;;
12290;SDS011;6208;48.956;9.076;2023-10-31T05:50:52;1.13;;;0.50;;
12290;SDS011;6208;48.956;9.076;2023-10-31T05:53:36;1.27;;;0.40;;
12290;SDS011;6208;48.956;9.076;2023-10-31T05:56:20;0.88;;;0.68;;
12290;SDS011;6208;48.956;9.076;2023-10-31T05:59:04;0.70;;;0.50;;
12290;SDS011;6208;48.956;9.076;2023-10-31T06:01:49;0.95;;;0.65;;
12290;SDS011;6208;48.956;9.076;2023-10-31T06:04:33;0.55;;;0.38;;
12290;SDS011;6208;48.956;9.076;2023-10-31T06:07:17;1.17;;;0.50;;
12290;SDS011;6208;48.956;9.076;2023-10-31T06:10:01;1.17;;;0.50;;
12290;SDS011;6208;48.956;9.076;2023-10-31T06:12:49;1.00;;;0.57;;
12290;SDS011;6208;48.956;9.076;2023-10-31T06:15:34;1.58;;;0.50;;
12290;SDS011;6208;48.956;9.076;2023-10-31T06:18:18;0.52;;;0.52;;
12290;SDS011;6208;48.956;9.076;2023-10-31T06:21:02;0.30;;;0.30;;
12290;SDS011;6208;48.956;9.076;2023-10-31T06:23:47;4.25;;;0.45;;
12290;SDS011;6208;48.956;9.076;2023-10-31T06:26:31;0.65;;;0.60;;
12290;SDS011;6208;48.956;9.076;2023-10-31T06:29:15;1.13;;;0.75;;
12290;SDS011;6208;48.956;9.076;2023-10-31T06:32:00;1.70;;;0.63;;
12290;SDS011;6208;48.956;9.076;2023-10-31T06:34:45;1.08;;;0.50;;
12290;SDS011;6208;48.956;9.076;2023-10-31T06:37:29;0.57;;;0.57;;
12290;SDS011;6208;48.956;9.076;2023-10-31T06:40:14;0.40;;;0.40;;
12290;SDS011;6208;48.956;9.076;2023-10-31T06:42:58;1.90;;;0.75;;
12290;SDS011;6208;48.956;9.076;2023-10-31T06:45:42;1.77;;;0.57;;
12290;SDS011;6208;48.956;9.076;2023-10-31T06:48:27;0.80;;;0.50;;
12290;SDS011;6208;48.956;9.076;2023-10-31T06:51:11;0.82;;;0.70;;
12290;SDS011;6208;48.956;9.076;2023-10-31T06:53:56;1.40;;;0.68;;
12290;SDS011;6208;48.956;9.076;2023-10-31T06:56:40;1.23;;;0.57;;
12290;SDS011;6208;48.956;9.076;2023-10-31T06:59:24;0.63;;;0.63;;
12290;SDS011;6208;48.956;9.076;2023-10-31T07:02:08;0.50;;;0.50;;
12290;SDS011;6208;48.956;9.076;2023-10-31T07:04:53;2.47;;;0.73;;
12290;SDS011;6208;48.956;9.076;2023-10-31T07:07:37;0.93;;;0.63;;
12290;SDS011;6208;48.956;9.076;2023-10-31T07:10:21;1.27;;;0.60;;
12290;SDS011;6208;48.956;9.076;2023-10-31T07:13:05;1.00;;;1.00;;
12290;SDS011;6208;48.956;9.076;2023-10-31T07:15:49;0.68;;;0.50;;
12290;SDS011;6208;48.956;9.076;2023-10-31T07:18:34;9.30;;;0.80;;
12290;SDS011;6208;48.956;9.076;2023-10-31T07:21:18;0.75;;;0.75;;
12290;SDS011;6208;48.956;9.076;2023-10-31T07:24:02;0.63;;;0.63;;
12290;SDS011;6208;48.956;9.076;2023-10-31T07:26:46;0.80;;;0.80;;
12290;SDS011;6208;48.956;9.076;2023-10-31T07:29:30;4.53;;;0.70;;
12290;SDS011;6208;48.956;9.076;2023-10-31T07:32:14;0.82;;;0.38;;
12290;SDS011;6208;48.956;9.076;2023-10-31T07:34:58;0.55;;;0.50;;
12290;SDS011;6208;48.956;9.076;2023-10-31T07:37:42;0.55;;;0.52;;
12290;SDS011;6208;48.956;9.076;2023-10-31T07:40:26;1.98;;;0.70;;
12290;SDS011;6208;48.956;9.076;2023-10-31T07:43:10;0.60;;;0.60;;
12290;SDS011;6208;48.956;9.076;2023-10-31T07:45:56;0.93;;;0.60;;
12290;SDS011;6208;48.956;9.076;2023-10-31T07:48:40;0.80;;;0.80;;
12290;SDS011;6208;48.956;9.076;2023-10-31T07:51:24;1.55;;;0.88;;
12290;SDS011;6208;48.956;9.076;2023-10-31T07:54:08;2.28;;;0.70;;
12290;SDS011;6208;48.956;9.076;2023-10-31T07:56:53;0.80;;;0.60;;
12290;SDS011;6208;48.956;9.076;2023-10-31T07:59:38;2.22;;;0.93;;
12290;SDS011;6208;48.956;9.076;2023-10-31T08:02:22;1.58;;;1.00;;
12290;SDS011;6208;48.956;9.076;2023-10-31T08:05:06;2.17;;;1.33;;
12290;SDS011;6208;48.956;9.076;2023-10-31T08:07:51;0.70;;;0.70;;
12290;SDS011;6208;48.956;9.076;2023-10-31T08:10:35;1.15;;;0.85;;
12290;SDS011;6208;48.956;9.076;2023-10-31T08:13:19;2.92;;;0.80;;
12290;SDS011;6208;48.956;9.076;2023-10-31T08:16:06;1.33;;;0.70;;
12290;SDS011;6208;48.956;9.076;2023-10-31T08:18:51;2.67;;;0.68;;
12290;SDS011;6208;48.956;9.076;2023-10-31T08:21:36;1.13;;;0.47;;
12290;SDS011;6208;48.956;9.076;2023-10-31T08:24:21;0.88;;;0.80;;
12290;SDS011;6208;48.956;9.076;2023-10-31T08:27:05;1.70;;;0.50;;
12290;SDS011;6208;48.956;9.076;2023-10-31T08:29:49;0.82;;;0.70;;
12290;SDS011;6208;48.956;9.076;2023-10-31T08:32:33;1.65;;;0.82;;
12290;SDS011;6208;48.956;9.076;2023-10-31T08:35:18;2.33;;;0.70;;
12290;SDS011;6208;48.956;9.076;2023-10-31T08:38:02;2.67;;;0.85;;
12290;SDS011;6208;48.956;9.076;2023-10-31T08:40:46;5.78;;;1.17;;
12290;SDS011;6208;48.956;9.076;2023-10-31T08:43:32;0.70;;;0.68;;
12290;SDS011;6208;48.956;9.076;2023-10-31T08:46:16;1.20;;;0.65;;
12290;SDS011;6208;48.956;9.076;2023-10-31T08:49:00;3.53;;;0.73;;
12290;SDS011;6208;48.956;9.076;2023-10-31T08:51:44;1.73;;;0.90;;
12290;SDS011;6208;48.956;9.076;2023-10-31T08:54:28;3.20;;;0.65;;
12290;SDS011;6208;48.956;9.076;2023-10-31T08:57:12;2.67;;;1.05;;
12290;SDS011;6208;48.956;9.076;2023-10-31T08:59:57;3.75;;;1.23;;
12290;SDS011;6208;48.956;9.076;2023-10-31T09:02:41;0.98;;;0.63;;
12290;SDS011;6208;48.956;9.076;2023-10-31T09:05:26;3.90;;;0.93;;
12290;SDS011;6208;48.956;9.076;2023-10-31T09:08:10;2.72;;;1.25;;
12290;SDS011;6208;48.956;9.076;2023-10-31T09:10:54;2.42;;;0.90;;
12290;SDS011;6208;48.956;9.076;2023-10-31T09:13:38;0.80;;;0.80;;
12290;SDS011;6208;48.956;9.076;2023-10-31T09:16:22;1.48;;;0.90;;
12290;SDS011;6208;48.956;9.076;2023-10-31T09:19:06;2.17;;;0.90;;
12290;SDS011;6208;48.956;9.076;2023-10-31T09:21:50;3.20;;;1.08;;
12290;SDS011;6208;48.956;9.076;2023-10-31T09:24:34;2.25;;;1.20;;
12290;SDS011;6208;48.956;9.076;2023-10-31T09:27:18;1.98;;;1.20;;
12290;SDS011;6208;48.956;9.076;2023-10-31T09:30:02;2.75;;;0.90;;
12290;SDS011;6208;48.956;9.076;2023-10-31T09:32:48;2.65;;;1.58;;
12290;SDS011;6208;48.956;9.076;2023-10-31T09:35:32;1.33;;;1.05;;
12290;SDS011;6208;48.956;9.076;2023-10-31T09:38:16;0.70;;;0.70;;
12290;SDS011;6208;48.956;9.076;2023-10-31T09:41:01;1.58;;;0.90;;
12290;SDS011;6208;48.956;9.076;2023-10-31T09:43:45;2.17;;;1.30;;
12290;SDS011;6208;48.956;9.076;2023-10-31T09:46:29;4.65;;;1.20;;
12290;SDS011;6208;48.956;9.076;2023-10-31T09:49:14;4.18;;;1.48;;
12290;SDS011;6208;48.956;9.076;2023-10-31T09:51:59;4.25;;;1.38;;
12290;SDS011;6208;48.956;9.076;2023-10-31T09:54:44;1.17;;;1.08;;
12290;SDS011;6208;48.956;9.076;2023-10-31T09:57:29;2.70;;;1.13;;
12290;SDS011;6208;48.956;9.076;2023-10-31T10:00:13;1.88;;;0.95;;
12290;SDS011;6208;48.956;9.076;2023-10-31T10:02:57;1.58;;;0.90;;
12290;SDS011;6208;48.956;9.076;2023-10-31T10:05:43;2.42;;;0.82;;
12290;SDS011;6208;48.956;9.076;2023-10-31T10:08:28;2.70;;;1.05;;
12290;SDS011;6208;48.956;9.076;2023-10-31T10:11:13;3.47;;;0.90;;
12290;SDS011;6208;48.956;9.076;2023-10-31T10:13:58;1.58;;;0.77;;
12290;SDS011;6208;48.956;9.076;2023-10-31T10:16:42;3.67;;;1.27;;
12290;SDS011;6208;48.956;9.076;2023-10-31T10:19:26;1.63;;;0.93;;
12290;SDS011;6208;48.956;9.076;2023-10-31T10:22:12;3.60;;;1.38;;
12290;SDS011;6208;48.956;9.076;2023-10-31T10:24:58;1.90;;;1.13;;
12290;SDS011;6208;48.956;9.076;2023-10-31T10:27:42;2.17;;;1.23;;
12290;SDS011;6208;48.956;9.076;2023-10-31T10:30:26;3.40;;;1.02;;
12290;SDS011;6208;48.956;9.076;2023-10-31T10:33:10;1.45;;;1.35;;
12290;SDS011;6208;48.956;9.076;2023-10-31T10:35:54;2.22;;;1.13;;
12290;SDS011;6208;48.956;9.076;2023-10-31T10:38:39;2.88;;;1.15;;
12290;SDS011;6208;48.956;9.076;2023-10-31T10:41:27;2.63;;;0.98;;
12290;SDS011;6208;48.956;9.076;2023-10-31T10:44:12;2.15;;;1.20;;
12290;SDS011;6208;48.956;9.076;2023-10-31T10:46:57;5.43;;;1.25;;
12290;SDS011;6208;48.956;9.076;2023-10-31T10:49:44;5.70;;;1.35;;
12290;SDS011;6208;48.956;9.076;2023-10-31T10:52:35;2.30;;;1.30;;
12290;SDS011;6208;48.956;9.076;2023-10-31T10:55:24;2.58;;;0.88;;
12290;SDS011;6208;48.956;9.076;2023-10-31T10:58:12;2.63;;;1.30;;
12290;SDS011;6208;48.956;9.076;2023-10-31T11:01:05;4.88;;;1.10;;
12290;SDS011;6208;48.956;9.076;2023-10-31T11:03:51;4.03;;;1.33;;
12290;SDS011;6208;48.956;9.076;2023-10-31T11:06:36;1.55;;;1.13;;
12290;SDS011;6208;48.956;9.076;2023-10-31T11:09:22;2.38;;;1.15;;
12290;SDS011;6208;48.956;9.076;2023-10-31T11:12:07;3.67;;;1.25;;
12290;SDS011;6208;48.956;9.076;2023-10-31T11:14:53;0.80;;;0.77;;
12290;SDS011;6208;48.956;9.076;2023-10-31T11:17:42;1.60;;;0.77;;
12290;SDS011;6208;48.956;9.076;2023-10-31T11:20:28;0.40;;;0.40;;
12290;SDS011;6208;48.956;9.076;2023-10-31T11:23:13;2.50;;;0.80;;
12290;SDS011;6208;48.956;9.076;2023-10-31T11:25:58;0.85;;;0.80;;
12290;SDS011;6208;48.956;9.076;2023-10-31T11:28:44;1.10;;;0.60;;
12290;SDS011;6208;48.956;9.076;2023-10-31T11:31:28;4.55;;;1.10;;
12290;SDS011;6208;48.956;9.076;2023-10-31T11:34:12;1.67;;;0.77;;
12290;SDS011;6208;48.956;9.076;2023-10-31T11:40:21;1.35;;;0.70;;
12290;SDS011;6208;48.956;9.076;2023-10-31T11:43:06;2.17;;;0.85;;
12290;SDS011;6208;48.956;9.076;2023-10-31T11:45:52;2.22;;;1.02;;
12290;SDS011;6208;48.956;9.076;2023-10-31T11:48:48;0.77;;;0.73;;
12290;SDS011;6208;48.956;9.076;2023-10-31T11:51:35;2.33;;;0.80;;
12290;SDS011;6208;48.956;9.076;2023-10-31T11:54:19;4.70;;;1.00;;
12290;SDS011;6208;48.956;9.076;2023-10-31T11:57:04;2.55;;;0.70;;
12290;SDS011;6208;48.956;9.076;2023-10-31T11:59:49;1.35;;;0.63;;
12290;SDS011;6208;48.956;9.076;2023-10-31T12:02:33;0.65;;;0.65;;
12290;SDS011;6208;48.956;9.076;2023-10-31T12:05:17;3.00;;;0.60;;
12290;SDS011;6208;48.956;9.076;2023-10-31T12:08:01;1.25;;;1.08;;
12290;SDS011;6208;48.956;9.076;2023-10-31T12:10:46;2.05;;;0.80;;
12290;SDS011;6208;48.956;9.076;2023-10-31T12:13:30;1.05;;;0.70;;
12290;SDS011;6208;48.956;9.076;2023-10-31T12:16:14;1.55;;;1.20;;
12290;SDS011;6208;48.956;9.076;2023-10-31T12:19:00;1.52;;;1.30;;
12290;SDS011;6208;48.956;9.076;2023-10-31T12:21:48;1.88;;;1.42;;
12290;SDS011;6208;48.956;9.076;2023-10-31T12:24:33;2.67;;;1.48;;
12290;SDS011;6208;48.956;9.076;2023-10-31T12:27:18;2.15;;;1.40;;
12290;SDS011;6208;48.956;9.076;2023-10-31T12:30:02;2.05;;;1.63;;
12290;SDS011;6208;48.956;9.076;2023-10-31T12:32:56;2.53;;;1.90;;
12290;SDS011;6208;48.956;9.076;2023-10-31T12:35:40;2.38;;;1.65;;
12290;SDS011;6208;48.956;9.076;2023-10-31T12:38:25;3.13;;;2.10;;
12290;SDS011;6208;48.956;9.076;2023-10-31T12:41:10;2.75;;;2.05;;
12290;SDS011;6208;48.956;9.076;2023-10-31T12:43:54;1.90;;;1.80;;
12290;SDS011;6208;48.956;9.076;2023-10-31T12:46:39;3.15;;;2.20;;
12290;SDS011;6208;48.956;9.076;2023-10-31T12:49:25;2.38;;;2.25;;
12290;SDS011;6208;48.956;9.076;2023-10-31T12:52:11;2.35;;;2.15;;
12290;SDS011;6208;48.956;9.076;2023-10-31T12:54:55;2.58;;;2.40;;
12290;SDS011;6208;48.956;9.076;2023-10-31T12:57:39;3.47;;;2.60;;
12290;SDS011;6208;48.956;9.076;2023-10-31T13:00:30;3.05;;;2.40;;
12290;SDS011;6208;48.956;9.076;2023-10-31T13:03:15;4.70;;;2.70;;
12290;SDS011;6208;48.956;9.076;2023-10-31T13:05:59;4.25;;;2.75;;
12290;SDS011;6208;48.956;9.076;2023-10-31T13:08:56;2.70;;;2.45;;
12290;SDS011;6208;48.956;9.076;2023-10-31T13:11:42;3.60;;;3.22;;
12290;SDS011;6208;48.956;9.076;2023-10-31T13:14:26;3.28;;;2.80;;
12290;SDS011;6208;48.956;9.076;2023-10-31T13:17:10;3.80;;;3.42;;
12290;SDS011;6208;48.956;9.076;2023-10-31T13:19:55;3.35;;;2.53;;
12290;SDS011;6208;48.956;9.076;2023-10-31T13:22:39;4.60;;;2.47;;
12290;SDS011;6208;48.956;9.076;2023-10-31T13:25:24;2.35;;;2.15;;
12290;SDS011;6208;48.956;9.076;2023-10-31T13:28:09;1.88;;;1.67;;
12290;SDS011;6208;48.956;9.076;2023-10-31T13:30:56;1.23;;;1.13;;
12290;SDS011;6208;48.956;9.076;2023-10-31T13:33:40;0.90;;;0.90;;
12290;SDS011;6208;48.956;9.076;2023-10-31T13:36:24;1.40;;;0.60;;
12290;SDS011;6208;48.956;9.076;2023-10-31T13:39:08;3.13;;;1.10;;
12290;SDS011;6208;48.956;9.076;2023-10-31T13:41:52;2.15;;;1.23;;
12290;SDS011;6208;48.956;9.076;2023-10-31T13:44:36;1.10;;;1.00;;
12290;SDS011;6208;48.956;9.076;2023-10-31T13:47:21;3.58;;;1.55;;
12290;SDS011;6208;48.956;9.076;2023-10-31T13:50:05;0.60;;;0.60;;
12290;SDS011;6208;48.956;9.076;2023-10-31T13:52:52;2.05;;;0.82;;
12290;SDS011;6208;48.956;9.076;2023-10-31T13:55:36;0.73;;;0.63;;
12290;SDS011;6208;48.956;9.076;2023-10-31T13:58:20;2.53;;;0.93;;
12290;SDS011;6208;48.956;9.076;2023-10-31T14:01:04;0.60;;;0.45;;
12290;SDS011;6208;48.956;9.076;2023-10-31T14:03:49;1.15;;;0.88;;
12290;SDS011;6208;48.956;9.076;2023-10-31T14:06:34;1.00;;;0.80;;
12290;SDS011;6208;48.956;9.076;2023-10-31T14:09:18;0.95;;;0.70;;
12290;SDS011;6208;48.956;9.076;2023-10-31T14:12:02;1.08;;;0.70;;
12290;SDS011;6208;48.956;9.076;2023-10-31T14:14:47;1.08;;;0.90;;
12290;SDS011;6208;48.956;9.076;2023-10-31T14:17:32;2.17;;;0.70;;
12290;SDS011;6208;48.956;9.076;2023-10-31T14:20:17;1.42;;;1.33;;
12290;SDS011;6208;48.956;9.076;2023-10-31T14:23:01;1.45;;;0.68;;
12290;SDS011;6208;48.956;9.076;2023-10-31T14:25:45;0.75;;;0.70;;
12290;SDS011;6208;48.956;9.076;2023-10-31T14:28:30;1.42;;;1.02;;
12290;SDS011;6208;48.956;9.076;2023-10-31T14:31:14;0.70;;;0.70;;
12290;SDS011;6208;48.956;9.076;2023-10-31T14:33:59;1.80;;;0.88;;
12290;SDS011;6208;48.956;9.076;2023-10-31T14:36:43;4.63;;;0.90;;
12290;SDS011;6208;48.956;9.076;2023-10-31T14:39:27;1.98;;;1.00;;
12290;SDS011;6208;48.956;9.076;2023-10-31T14:42:12;2.10;;;0.63;;
12290;SDS011;6208;48.956;9.076;2023-10-31T14:44:56;1.42;;;0.65;;
12290;SDS011;6208;48.956;9.076;2023-10-31T14:47:40;1.08;;;0.80;;
12290;SDS011;6208;48.956;9.076;2023-10-31T14:50:24;2.38;;;0.98;;
12290;SDS011;6208;48.956;9.076;2023-10-31T14:53:08;1.45;;;1.20;;
12290;SDS011;6208;48.956;9.076;2023-10-31T14:55:53;0.93;;;0.90;;
12290;SDS011;6208;48.956;9.076;2023-10-31T14:58:37;1.85;;;0.90;;
12290;SDS011;6208;48.956;9.076;2023-10-31T15:01:21;0.95;;;0.82;;
12290;SDS011;6208;48.956;9.076;2023-10-31T15:04:05;2.25;;;0.90;;
12290;SDS011;6208;48.956;9.076;2023-10-31T15:06:50;0.93;;;0.80;;
12290;SDS011;6208;48.956;9.076;2023-10-31T15:09:34;1.20;;;0.70;;
12290;SDS011;6208;48.956;9.076;2023-10-31T15:12:19;3.08;;;1.83;;
12290;SDS011;6208;48.956;9.076;2023-10-31T15:15:04;2.42;;;1.08;;
12290;SDS011;6208;48.956;9.076;2023-10-31T15:17:49;0.70;;;0.70;;
12290;SDS011;6208;48.956;9.076;2023-10-31T15:20:35;5.85;;;1.02;;
12290;SDS011;6208;48.956;9.076;2023-10-31T15:23:20;1.15;;;0.80;;
12290;SDS011;6208;48.956;9.076;2023-10-31T15:26:04;1.02;;;0.75;;
12290;SDS011;6208;48.956;9.076;2023-10-31T15:28:49;0.90;;;0.80;;
12290;SDS011;6208;48.956;9.076;2023-10-31T15:31:33;0.60;;;0.60;;
12290;SDS011;6208;48.956;9.076;2023-10-31T15:34:17;1.42;;;0.88;;
12290;SDS011;6208;48.956;9.076;2023-10-31T15:37:01;1.27;;;0.90;;
12290;SDS011;6208;48.956;9.076;2023-10-31T15:39:46;1.58;;;0.80;;
12290;SDS011;6208;48.956;9.076;2023-10-31T15:42:32;0.82;;;0.65;;
12290;SDS011;6208;48.956;9.076;2023-10-31T15:45:16;1.20;;;0.95;;
12290;SDS011;6208;48.956;9.076;2023-10-31T15:48:00;0.85;;;0.77;;
12290;SDS011;6208;48.956;9.076;2023-10-31T15:50:44;1.85;;;0.77;;
12290;SDS011;6208;48.956;9.076;2023-10-31T15:53:28;0.98;;;0.60;;
12290;SDS011;6208;48.956;9.076;2023-10-31T15:56:12;0.60;;;0.60;;
12290;SDS011;6208;48.956;9.076;2023-10-31T15:58:56;1.42;;;0.63;;
12290;SDS011;6208;48.956;9.076;2023-10-31T16:01:40;0.60;;;0.55;;
12290;SDS011;6208;48.956;9.076;2023-10-31T16:04:25;0.80;;;0.80;;
12290;SDS011;6208;48.956;9.076;2023-10-31T16:07:11;1.83;;;0.90;;
12290;SDS011;6208;48.956;9.076;2023-10-31T16:09:56;1.90;;;1.65;;
12290;SDS011;6208;48.956;9.076;2023-10-31T16:12:40;2.90;;;1.00;;
12290;SDS011;6208;48.956;9.076;2023-10-31T16:15:25;0.60;;;0.60;;
12290;SDS011;6208;48.956;9.076;2023-10-31T16:18:08;2.38;;;0.85;;
12290;SDS011;6208;48.956;9.076;2023-10-31T16:20:54;2.50;;;0.82;;
12290;SDS011;6208;48.956;9.076;2023-10-31T16:23:38;0.65;;;0.65;;
12290;SDS011;6208;48.956;9.076;2023-10-31T16:26:23;2.00;;;0.88;;
12290;SDS011;6208;48.956;9.076;2023-10-31T16:29:07;1.50;;;0.82;;
12290;SDS011;6208;48.956;9.076;2023-10-31T16:32:01;0.80;;;0.80;;
12290;SDS011;6208;48.956;9.076;2023-10-31T16:34:46;1.02;;;1.02;;
12290;SDS011;6208;48.956;9.076;2023-10-31T16:37:33;2.53;;;1.25;;
12290;SDS011;6208;48.956;9.076;2023-10-31T16:40:17;1.10;;;1.10;;
12290;SDS011;6208;48.956;9.076;2023-10-31T16:43:01;3.42;;;2.20;;
12290;SDS011;6208;48.956;9.076;2023-10-31T16:45:46;1.88;;;1.40;;
12290;SDS011;6208;48.956;9.076;2023-10-31T16:48:30;1.98;;;1.50;;